createdAt,value
2019-02-03T00:01:31.494Z,94779.44
2019-02-03T00:03:58.150Z,94778.97
2019-02-03T00:06:24.851Z,94780.73
2019-02-03T00:08:51.511Z,94772.34
2019-02-03T00:11:18.204Z,94769.95
2019-02-03T00:13:44.981Z,94776.95
2019-02-03T00:16:11.683Z,94772.48
2019-02-03T00:18:38.459Z,94765.56
2019-02-03T00:21:05.124Z,94770.41
2019-02-03T00:23:31.795Z,94777.80
2019-02-03T00:25:58.446Z,94779.44
2019-02-03T00:28:25.186Z,94782.38
2019-02-03T00:30:51.858Z,94778.02
2019-02-03T00:33:18.511Z,94775.44
2019-02-03T00:35:45.179Z,94783.17
2019-02-03T00:38:21.331Z,94781.75
2019-02-03T00:40:38.515Z,94779.57
2019-02-03T00:43:05.169Z,94800.45
2019-02-03T00:45:31.844Z,94784.91
2019-02-03T00:47:58.508Z,94791.84
2019-02-03T00:50:25.161Z,94791.12
2019-02-03T00:52:51.819Z,94799.07
2019-02-03T00:55:18.486Z,94792.14
2019-02-03T00:57:45.144Z,94803.95
2019-02-03T01:00:11.809Z,94792.09
2019-02-03T01:02:38.464Z,94784.82
2019-02-03T01:05:05.163Z,94803.52
2019-02-03T01:07:31.819Z,94792.72
2019-02-03T01:09:58.469Z,94802.17
2019-02-03T01:12:25.129Z,94781.34
2019-02-03T01:14:51.793Z,94784.48
2019-02-03T01:17:18.498Z,94773.77
2019-02-03T01:19:45.156Z,94782.05
2019-02-03T01:22:11.805Z,94779.86
2019-02-03T01:24:38.473Z,94763.02
2019-02-03T01:27:05.129Z,94770.45
2019-02-03T01:29:31.790Z,94770.99
2019-02-03T01:31:58.495Z,94768.80
2019-02-03T01:34:25.166Z,94754.93
2019-02-03T01:36:51.832Z,94749.69
2019-02-03T01:39:18.531Z,94751.03
2019-02-03T01:41:45.186Z,94745.02
2019-02-03T01:44:12.024Z,94742.11
2019-02-03T01:46:38.740Z,94741.23
2019-02-03T01:49:05.403Z,94750.36
2019-02-03T01:51:32.071Z,94748.51
2019-02-03T01:53:58.764Z,94752.67
2019-02-03T01:56:25.434Z,94747.36
2019-02-03T01:58:52.140Z,94748.41
2019-02-03T02:01:18.818Z,94746.53
2019-02-03T02:03:45.496Z,94747.11
2019-02-03T02:06:12.222Z,94745.73
2019-02-03T02:08:41.489Z,94740.61
2019-02-03T02:11:08.151Z,94744.06
2019-02-03T02:13:34.827Z,94753.22
2019-02-03T02:16:01.488Z,94748.67
2019-02-03T02:18:28.138Z,94753.59
2019-02-03T02:20:54.846Z,94757.00
2019-02-03T02:23:21.508Z,94752.58
2019-02-03T02:25:48.170Z,94753.47
2019-02-03T02:28:14.831Z,94753.44
2019-02-03T02:30:41.491Z,94763.54
2019-02-03T02:33:08.160Z,94761.46
2019-02-03T02:35:34.820Z,94764.70
2019-02-03T02:38:06.264Z,94766.13
2019-02-03T02:40:28.143Z,94769.62
2019-02-03T02:42:54.842Z,94761.59
2019-02-03T02:45:21.500Z,94762.77
2019-02-03T02:47:48.143Z,94768.35
2019-02-03T02:50:14.815Z,94763.18
2019-02-03T02:52:41.474Z,94756.20
2019-02-03T02:55:08.131Z,94764.45
2019-02-03T02:57:34.785Z,94759.83
2019-02-03T03:00:01.447Z,94763.99
2019-02-03T03:02:28.110Z,94760.00
2019-02-03T03:04:54.811Z,94750.83
2019-02-03T03:07:21.513Z,94760.50
2019-02-03T03:09:48.313Z,94765.00
2019-02-03T03:12:14.974Z,94764.16
2019-02-03T03:14:41.638Z,94764.37
2019-02-03T03:17:08.315Z,94755.16
2019-02-03T03:19:34.982Z,94761.64
2019-02-03T03:22:01.666Z,94763.91
2019-02-03T03:24:28.342Z,94771.94
2019-02-03T03:26:55.048Z,94772.39
2019-02-03T03:29:21.738Z,94777.02
2019-02-03T03:31:48.405Z,94779.46
2019-02-03T03:34:15.093Z,94781.02
2019-02-03T03:36:41.861Z,94779.59
2019-02-03T03:39:08.500Z,94779.08
2019-02-03T03:41:35.158Z,94776.01
2019-02-03T03:44:01.828Z,94772.99
2019-02-03T03:46:28.491Z,94764.53
2019-02-03T03:48:55.141Z,94772.14
2019-02-03T03:51:21.850Z,94782.11
2019-02-03T03:53:48.550Z,94777.78
2019-02-03T03:56:15.223Z,94781.22
2019-02-03T03:58:41.890Z,94773.71
2019-02-03T04:01:08.552Z,94782.66
2019-02-03T04:03:35.248Z,94787.74
2019-02-03T04:06:01.911Z,94792.45
2019-02-03T04:08:28.745Z,94798.34
2019-02-03T04:10:55.279Z,94793.76
2019-02-03T04:13:21.972Z,94788.80
2019-02-03T04:15:48.619Z,94782.91
2019-02-03T04:18:15.281Z,94788.25
2019-02-03T04:20:41.989Z,94788.67
2019-02-03T04:23:08.645Z,94789.98
2019-02-03T04:25:35.332Z,94791.48
2019-02-03T04:28:02.143Z,94784.39
2019-02-03T04:30:28.843Z,94782.87
2019-02-03T04:32:55.663Z,94772.58
2019-02-03T04:35:22.360Z,94773.29
2019-02-03T04:37:49.009Z,94779.47
2019-02-03T04:40:15.709Z,94769.32
2019-02-03T04:42:42.433Z,94772.81
2019-02-03T04:45:09.110Z,94775.09
2019-02-03T04:47:35.757Z,94772.20
2019-02-03T04:50:02.499Z,94774.61
2019-02-03T04:52:29.148Z,94777.34
2019-02-03T04:54:55.799Z,94778.36
2019-02-03T04:57:23.402Z,94772.97
2019-02-03T04:59:50.057Z,94782.91
2019-02-03T05:02:16.714Z,94780.39
2019-02-03T05:04:43.365Z,94779.66
2019-02-03T05:07:10.019Z,94793.33
2019-02-03T05:09:36.724Z,94787.33
2019-02-03T05:12:03.385Z,94788.80
2019-02-03T05:14:30.085Z,94795.08
2019-02-03T05:16:56.745Z,94799.81
2019-02-03T05:19:23.398Z,94802.08
2019-02-03T05:21:50.101Z,94800.41
2019-02-03T05:24:16.870Z,94804.75
2019-02-03T05:26:43.649Z,94801.31
2019-02-03T05:29:10.209Z,94804.95
2019-02-03T05:31:36.972Z,94800.46
2019-02-03T05:34:03.677Z,94804.20
2019-02-03T05:36:30.327Z,94800.63
2019-02-03T05:38:56.985Z,94799.83
2019-02-03T05:41:23.649Z,94815.70
2019-02-03T05:43:50.291Z,94809.53
2019-02-03T05:46:16.947Z,94810.50
2019-02-03T05:48:43.584Z,94809.38
2019-02-03T05:51:10.226Z,94807.56
2019-02-03T05:53:36.883Z,94809.04
2019-02-03T05:56:03.541Z,94805.89
2019-02-03T05:58:30.221Z,94812.23
2019-02-03T06:00:57.004Z,94809.41
2019-02-03T06:03:23.651Z,94820.77
2019-02-03T06:05:50.301Z,94821.89
2019-02-03T06:08:16.950Z,94820.41
2019-02-03T06:10:43.637Z,94815.97
2019-02-03T06:13:10.261Z,94810.96
2019-02-03T06:15:36.908Z,94822.69
2019-02-03T06:18:03.593Z,94826.97
2019-02-03T06:20:30.269Z,94826.44
2019-02-03T06:22:56.909Z,94826.47
2019-02-03T06:25:23.572Z,94830.03
2019-02-03T06:27:50.268Z,94837.48
2019-02-03T06:30:16.919Z,94828.27
2019-02-03T06:32:43.558Z,94830.41
2019-02-03T06:35:10.215Z,94836.43
2019-02-03T06:37:36.870Z,94849.53
2019-02-03T06:40:03.554Z,94851.81
2019-02-03T06:42:30.200Z,94846.89
2019-02-03T06:44:56.882Z,94847.19
2019-02-03T06:47:23.526Z,94858.07
2019-02-03T06:49:50.165Z,94862.07
2019-02-03T06:52:16.809Z,94868.53
2019-02-03T06:54:43.493Z,94865.08
2019-02-03T06:57:10.179Z,94868.28
2019-02-03T06:59:36.834Z,94864.41
2019-02-03T07:02:03.480Z,94860.59
2019-02-03T07:04:30.167Z,94873.16
2019-02-03T07:06:56.805Z,94873.33
2019-02-03T07:09:23.478Z,94869.29
2019-02-03T07:11:50.130Z,94863.45
2019-02-03T07:14:16.790Z,94867.33
2019-02-03T07:16:43.472Z,94868.75
2019-02-03T07:19:10.125Z,94879.21
2019-02-03T07:21:36.803Z,94883.38
2019-02-03T07:24:03.484Z,94883.24
2019-02-03T07:26:30.130Z,94885.34
2019-02-03T07:28:56.766Z,94888.13
2019-02-03T07:31:23.411Z,94885.10
2019-02-03T07:33:50.053Z,94879.67
2019-02-03T07:36:16.702Z,94879.16
2019-02-03T07:38:43.348Z,94886.36
2019-02-03T07:41:09.994Z,94884.34
2019-02-03T07:43:36.640Z,94881.94
2019-02-03T07:46:03.283Z,94887.45
2019-02-03T07:48:31.265Z,94889.31
2019-02-03T07:50:56.642Z,94883.87
2019-02-03T07:53:23.313Z,94883.74
2019-02-03T07:55:49.952Z,94887.15
2019-02-03T07:58:16.601Z,94888.75
2019-02-03T08:00:43.240Z,94880.30
2019-02-03T08:03:10.183Z,94874.03
2019-02-03T08:05:36.835Z,94884.97
2019-02-03T08:08:03.577Z,94876.48
2019-02-03T08:10:30.231Z,94877.83
2019-02-03T08:12:56.881Z,94878.11
2019-02-03T08:15:23.535Z,94874.71
2019-02-03T08:17:50.217Z,94869.88
2019-02-03T08:20:16.868Z,94873.87
2019-02-03T08:22:43.505Z,94877.69
2019-02-03T08:25:10.199Z,94876.72
2019-02-03T08:27:36.832Z,94872.28
2019-02-03T08:30:03.515Z,94859.11
2019-02-03T08:32:30.161Z,94859.95
2019-02-03T08:34:56.792Z,94856.80
2019-02-03T08:37:23.438Z,94862.26
2019-02-03T08:39:50.084Z,94863.70
2019-02-03T08:42:16.737Z,94860.66
2019-02-03T08:44:43.377Z,94869.61
2019-02-03T08:47:10.018Z,94874.88
2019-02-03T08:49:36.692Z,94878.83
2019-02-03T08:52:03.359Z,94874.95
2019-02-03T08:54:29.983Z,94867.27
2019-02-03T08:56:56.745Z,94871.71
2019-02-03T08:59:23.425Z,94869.16
2019-02-03T09:01:50.111Z,94871.42
2019-02-03T09:04:16.749Z,94884.24
2019-02-03T09:06:43.399Z,94873.14
2019-02-03T09:09:10.034Z,94880.03
2019-02-03T09:11:36.716Z,94870.95
2019-02-03T09:14:03.367Z,94878.39
2019-02-03T09:16:30.011Z,94873.97
2019-02-03T09:18:56.654Z,94875.08
2019-02-03T09:21:23.349Z,94880.70
2019-02-03T09:23:49.989Z,94875.77
2019-02-03T09:26:16.644Z,94879.32
2019-02-03T09:28:43.279Z,94870.44
2019-02-03T09:31:10.001Z,94875.98
2019-02-03T09:33:36.676Z,94863.87
2019-02-03T09:36:03.323Z,94869.88
2019-02-03T09:38:29.938Z,94861.30
2019-02-03T09:41:00.080Z,94858.61
2019-02-03T09:43:23.289Z,94855.58
2019-02-03T09:45:49.974Z,94856.54
2019-02-03T09:48:16.603Z,94853.67
2019-02-03T09:50:43.389Z,94857.80
2019-02-03T09:53:09.945Z,94839.58
2019-02-03T09:55:36.580Z,94840.33
2019-02-03T09:58:03.286Z,94833.52
2019-02-03T10:00:29.925Z,94825.18
2019-02-03T10:02:56.570Z,94807.25
2019-02-03T10:05:23.264Z,94806.19
2019-02-03T10:07:49.896Z,94797.16
2019-02-03T10:10:16.532Z,94801.91
2019-02-03T10:12:43.184Z,94807.27
2019-02-03T10:15:09.837Z,94802.52
2019-02-03T10:17:36.520Z,94793.53
2019-02-03T10:20:03.213Z,94787.95
2019-02-03T10:22:29.865Z,94801.72
2019-02-03T10:24:56.509Z,94787.03
2019-02-03T10:27:23.143Z,94785.31
2019-02-03T10:29:49.841Z,94782.13
2019-02-03T10:32:16.620Z,94783.92
2019-02-03T10:34:43.263Z,94781.31
2019-02-03T10:37:09.902Z,94783.78
2019-02-03T10:39:36.543Z,94779.24
2019-02-03T10:42:03.225Z,94771.09
2019-02-03T10:44:29.869Z,94769.57
2019-02-03T10:46:56.581Z,94778.73
2019-02-03T10:49:23.156Z,94765.86
2019-02-03T10:51:49.837Z,94765.31
2019-02-03T10:54:16.514Z,94772.61
2019-02-03T10:56:43.306Z,94758.17
2019-02-03T10:59:09.957Z,94754.33
2019-02-03T11:01:36.596Z,94752.25
2019-02-03T11:04:03.280Z,94750.84
2019-02-03T11:06:29.922Z,94742.13
2019-02-03T11:08:56.556Z,94753.70
2019-02-03T11:11:23.212Z,94754.31
2019-02-03T11:13:49.897Z,94754.89
2019-02-03T11:16:16.545Z,94751.59
2019-02-03T11:18:43.188Z,94739.09
2019-02-03T11:21:09.874Z,94740.10
2019-02-03T11:23:36.518Z,94732.29
2019-02-03T11:26:03.174Z,94716.86
2019-02-03T11:28:29.825Z,94725.98
2019-02-03T11:30:56.479Z,94729.57
2019-02-03T11:33:23.174Z,94728.79
2019-02-03T11:35:49.853Z,94730.50
2019-02-03T11:38:16.538Z,94720.77
2019-02-03T11:40:43.257Z,94717.67
2019-02-03T11:43:09.994Z,94709.53
2019-02-03T11:45:36.673Z,94712.63
2019-02-03T11:48:03.349Z,94713.11
2019-02-03T11:50:33.179Z,94704.45
2019-02-03T11:53:00.917Z,94717.17
2019-02-03T11:55:27.983Z,94711.72
2019-02-03T11:57:53.116Z,94697.30
2019-02-03T12:00:19.770Z,94701.92
2019-02-03T12:02:48.284Z,94699.03
2019-02-03T12:05:14.921Z,94691.90
2019-02-03T12:07:41.569Z,94681.44
2019-02-03T12:10:09.491Z,94692.59
2019-02-03T12:12:36.004Z,94672.59
2019-02-03T12:15:02.697Z,94684.21
2019-02-03T12:17:28.190Z,94673.84
2019-02-03T12:19:57.761Z,94672.16
2019-02-03T12:22:24.387Z,94670.92
2019-02-03T12:24:52.786Z,94670.66
2019-02-03T12:27:19.472Z,94661.02
2019-02-03T12:29:46.114Z,94664.92
2019-02-03T12:32:12.765Z,94659.09
2019-02-03T12:34:42.223Z,94662.08
2019-02-03T12:37:08.871Z,94681.45
2019-02-03T12:39:40.794Z,94670.43
2019-02-03T12:42:13.114Z,94661.53
2019-02-03T12:44:35.773Z,94672.13
2019-02-03T12:47:02.422Z,94664.54
2019-02-03T12:49:37.510Z,94652.41
2019-02-03T12:52:04.156Z,94658.73
2019-02-03T12:54:33.741Z,94663.77
2019-02-03T12:57:01.788Z,94661.09
2019-02-03T12:59:28.387Z,94664.97
2019-02-03T13:01:53.697Z,94660.38
2019-02-03T13:04:21.739Z,94654.38
2019-02-03T13:06:49.429Z,94655.77
2019-02-03T13:09:18.179Z,94643.36
2019-02-03T13:11:42.727Z,94651.06
2019-02-03T13:14:09.371Z,94651.91
2019-02-03T13:16:36.016Z,94657.13
2019-02-03T13:19:02.665Z,94659.47
2019-02-03T13:21:29.313Z,94663.23
2019-02-03T13:23:55.962Z,94670.23
2019-02-03T13:26:22.764Z,94672.67
2019-02-03T13:28:52.613Z,94666.78
2019-02-03T13:31:20.258Z,94666.38
2019-02-03T13:33:48.129Z,94664.42
2019-02-03T13:36:14.913Z,94658.97
2019-02-03T13:38:40.227Z,94657.36
2019-02-03T13:41:06.872Z,94649.94
2019-02-03T13:43:33.521Z,94637.80
2019-02-03T13:46:01.585Z,94648.86
2019-02-03T13:48:29.126Z,94658.11
2019-02-03T13:50:55.768Z,94656.45
2019-02-03T13:53:22.416Z,94660.93
2019-02-03T13:55:49.069Z,94660.47
2019-02-03T13:58:15.720Z,94669.28
2019-02-03T14:00:47.193Z,94660.67
2019-02-03T14:03:09.021Z,94650.17
2019-02-03T14:05:38.527Z,94647.84
2019-02-03T14:08:07.385Z,94656.94
2019-02-03T14:10:36.808Z,94658.97
2019-02-03T14:13:05.623Z,94652.54
2019-02-03T14:15:30.130Z,94647.24
2019-02-03T14:17:56.772Z,94644.45
2019-02-03T14:20:25.383Z,94654.38
2019-02-03T14:22:52.443Z,94660.58
2019-02-03T14:25:20.335Z,94661.48
2019-02-03T14:27:47.101Z,94666.74
2019-02-03T14:30:12.366Z,94668.51
2019-02-03T14:32:41.160Z,94670.02
2019-02-03T14:35:07.076Z,94666.66
2019-02-03T14:37:32.325Z,94663.20
2019-02-03T14:39:58.969Z,94662.75
2019-02-03T14:42:30.227Z,94677.10
2019-02-03T14:44:56.879Z,94678.69
2019-02-03T14:47:24.813Z,94670.03
2019-02-03T14:49:52.310Z,94678.82
2019-02-03T14:52:16.792Z,94686.05
2019-02-03T14:54:46.403Z,94675.29
2019-02-03T14:57:13.044Z,94679.17
2019-02-03T14:59:39.697Z,94684.80
2019-02-03T15:02:06.345Z,94679.61
2019-02-03T15:04:32.997Z,94682.39
2019-02-03T15:07:02.553Z,94665.41
2019-02-03T15:09:29.215Z,94676.32
2019-02-03T15:11:58.333Z,94689.23
2019-02-03T15:14:24.975Z,94693.06
2019-02-03T15:16:53.794Z,94703.14
2019-02-03T15:19:21.838Z,94680.87
2019-02-03T15:22:02.805Z,94682.61
2019-02-03T15:24:16.342Z,94687.16
2019-02-03T15:26:41.392Z,94680.53
2019-02-03T15:29:07.043Z,94651.63
2019-02-03T15:31:33.690Z,94673.50
2019-02-03T15:34:03.616Z,94660.98
2019-02-03T15:36:28.930Z,94679.84
2019-02-03T15:38:57.160Z,94679.58
2019-02-03T15:41:24.977Z,94685.03
2019-02-03T15:43:51.625Z,94689.50
2019-02-03T15:46:18.271Z,94696.97
2019-02-03T15:48:49.629Z,94702.05
2019-02-03T15:51:18.117Z,94710.19
2019-02-03T15:53:42.945Z,94716.87
2019-02-03T15:56:09.592Z,94722.58
2019-02-03T15:58:37.622Z,94710.08
2019-02-03T16:01:02.909Z,94722.53
2019-02-03T16:03:29.555Z,94716.39
2019-02-03T16:05:59.888Z,94708.31
2019-02-03T16:08:32.068Z,94715.00
2019-02-03T16:10:58.719Z,94713.45
2019-02-03T16:13:36.506Z,94701.16
2019-02-03T16:15:52.128Z,94713.73
2019-02-03T16:18:22.274Z,94718.17
2019-02-03T16:20:50.017Z,94713.94
2019-02-03T16:23:17.813Z,94718.28
2019-02-03T16:25:43.333Z,94720.84
2019-02-03T16:28:09.979Z,94731.05
2019-02-03T16:30:36.666Z,94735.11
2019-02-03T16:33:03.304Z,94736.88
2019-02-03T16:35:33.347Z,94733.41
2019-02-03T16:37:59.992Z,94734.28
2019-02-03T16:40:26.650Z,94738.70
2019-02-03T16:42:53.304Z,94742.77
2019-02-03T16:45:19.950Z,94744.64
2019-02-03T16:47:46.620Z,94742.33
2019-02-03T16:50:14.688Z,94737.05
2019-02-03T16:52:39.897Z,94735.17
2019-02-03T16:55:06.545Z,94734.05
2019-02-03T16:57:33.230Z,94740.50
2019-02-03T17:00:03.295Z,94737.47
2019-02-03T17:02:28.605Z,94745.95
2019-02-03T17:04:55.258Z,94752.97
2019-02-03T17:07:21.915Z,94746.09
2019-02-03T17:09:48.619Z,94745.63
2019-02-03T17:12:15.244Z,94747.02
2019-02-03T17:14:41.896Z,94748.56
2019-02-03T17:17:09.901Z,94752.73
2019-02-03T17:19:36.459Z,94756.76
2019-02-03T17:22:03.979Z,94755.25
2019-02-03T17:24:28.466Z,94760.12
2019-02-03T17:26:55.118Z,94765.42
2019-02-03T17:29:21.755Z,94768.41
2019-02-03T17:31:48.407Z,94782.73
2019-02-03T17:34:16.467Z,94799.24
2019-02-03T17:36:49.926Z,94793.05
2019-02-03T17:39:18.550Z,94790.01
2019-02-03T17:41:43.253Z,94787.22
2019-02-03T17:44:13.329Z,94789.57
2019-02-03T17:46:36.590Z,94798.17
2019-02-03T17:49:04.727Z,94800.48
2019-02-03T17:51:29.887Z,94801.82
2019-02-03T17:54:00.398Z,94801.19
2019-02-03T17:56:25.955Z,94809.67
2019-02-03T17:58:55.642Z,94815.72
2019-02-03T18:01:22.388Z,94815.34
2019-02-03T18:03:51.852Z,94818.81
2019-02-03T18:06:18.493Z,94826.46
2019-02-03T18:08:45.138Z,94833.73
2019-02-03T18:11:11.825Z,94820.91
2019-02-03T18:13:41.260Z,94821.66
2019-02-03T18:16:07.894Z,94815.91
2019-02-03T18:18:35.950Z,94813.20
2019-02-03T18:21:08.640Z,94824.52
2019-02-03T18:23:30.592Z,94828.23
2019-02-03T18:25:59.947Z,94830.95
2019-02-03T18:28:28.890Z,94850.11
2019-02-03T18:30:56.934Z,94852.11
2019-02-03T18:33:23.864Z,94841.83
2019-02-03T18:35:48.821Z,94851.73
2019-02-03T18:38:17.807Z,94852.69
2019-02-03T18:40:42.696Z,94849.53
2019-02-03T18:43:09.337Z,94844.17
2019-02-03T18:45:35.989Z,94849.09
2019-02-03T18:48:02.617Z,94853.96
2019-02-03T18:50:30.501Z,94867.41
2019-02-03T18:52:55.932Z,94871.82
2019-02-03T18:55:23.779Z,94871.96
2019-02-03T18:57:52.294Z,94874.86
2019-02-03T19:00:20.983Z,94875.12
2019-02-03T19:02:47.627Z,94881.11
2019-02-03T19:05:14.281Z,94884.41
2019-02-03T19:07:40.922Z,94886.53
2019-02-03T19:10:10.034Z,94899.55
2019-02-03T19:12:38.131Z,94908.09
2019-02-03T19:15:05.825Z,94907.30
2019-02-03T19:17:32.467Z,94910.46
2019-02-03T19:19:59.108Z,94910.80
2019-02-03T19:22:28.047Z,94919.83
2019-02-03T19:24:56.716Z,94914.77
2019-02-03T19:27:24.538Z,94925.30
2019-02-03T19:29:51.190Z,94920.33
2019-02-03T19:32:17.838Z,94920.84
2019-02-03T19:34:44.488Z,94930.69
2019-02-03T19:37:11.169Z,94928.00
2019-02-03T19:39:40.189Z,94932.95
2019-02-03T19:42:06.840Z,94943.44
2019-02-03T19:44:34.950Z,94945.85
2019-02-03T19:47:00.137Z,94948.69
2019-02-03T19:49:28.160Z,94962.06
2019-02-03T19:51:53.461Z,94967.74
2019-02-03T19:54:20.102Z,94961.69
2019-02-03T19:56:48.835Z,94962.37
2019-02-03T19:59:15.483Z,94961.73
2019-02-03T20:01:42.128Z,94955.25
2019-02-03T20:04:08.776Z,94956.57
2019-02-03T20:06:35.454Z,94960.45
2019-02-03T20:09:03.501Z,94955.42
2019-02-03T20:11:28.745Z,94960.98
2019-02-03T20:13:56.459Z,94966.95
2019-02-03T20:16:22.054Z,94971.43
2019-02-03T20:18:48.717Z,94978.08
2019-02-03T20:21:15.401Z,94970.04
2019-02-03T20:23:43.276Z,94964.20
2019-02-03T20:26:10.770Z,94969.75
2019-02-03T20:28:37.414Z,94982.76
2019-02-03T20:31:06.183Z,94974.47
2019-02-03T20:33:33.670Z,94959.94
2019-02-03T20:36:00.330Z,94996.13
2019-02-03T20:38:28.256Z,94959.74
2019-02-03T20:40:53.622Z,94983.73
2019-02-03T20:43:23.041Z,94972.67
2019-02-03T20:45:50.110Z,94975.78
2019-02-03T20:48:16.321Z,94977.64
2019-02-03T20:50:42.970Z,94995.82
2019-02-03T20:53:09.611Z,94997.00
2019-02-03T20:55:39.573Z,95001.16
2019-02-03T20:58:07.570Z,95001.30
2019-02-03T21:00:32.861Z,94992.87
2019-02-03T21:03:01.877Z,94987.65
2019-02-03T21:05:29.743Z,94995.11
2019-02-03T21:07:56.564Z,94995.66
2019-02-03T21:10:29.153Z,95014.86
2019-02-03T21:12:54.344Z,94986.44
2019-02-03T21:15:32.457Z,95002.55
2019-02-03T21:17:47.671Z,95006.83
2019-02-03T21:20:18.773Z,95005.97
2019-02-03T21:22:47.163Z,95016.20
2019-02-03T21:25:13.797Z,95014.52
2019-02-03T21:27:42.527Z,95016.05
2019-02-03T21:30:08.573Z,95020.34
2019-02-03T21:32:36.632Z,95027.54
2019-02-03T21:35:06.365Z,95034.94
2019-02-03T21:37:33.020Z,95026.73
2019-02-03T21:40:04.757Z,95026.23
2019-02-03T21:42:32.249Z,95031.03
2019-02-03T21:45:00.275Z,95027.33
2019-02-03T21:47:34.665Z,95032.75
2019-02-03T21:50:07.109Z,95035.08
2019-02-03T21:52:33.732Z,95041.34
2019-02-03T21:55:01.823Z,95064.33
2019-02-03T21:57:27.092Z,95036.68
2019-02-03T21:59:53.779Z,95082.63
2019-02-03T22:02:20.431Z,95025.47
2019-02-03T22:04:48.457Z,95055.39
2019-02-03T22:07:16.753Z,95059.78
2019-02-03T22:09:43.705Z,95049.67
2019-02-03T22:12:10.399Z,95064.49
2019-02-03T22:14:37.036Z,95077.23
2019-02-03T22:17:03.692Z,95058.56
2019-02-03T22:19:31.411Z,95064.38
2019-02-03T22:21:56.994Z,95099.71
2019-02-03T22:24:28.746Z,95066.52
2019-02-03T22:26:55.388Z,95094.16
2019-02-03T22:29:22.027Z,95079.38
2019-02-03T22:31:48.678Z,95080.53
2019-02-03T22:34:15.471Z,95085.95
2019-02-03T22:36:44.256Z,95088.73
2019-02-03T22:39:10.498Z,95087.52
2019-02-03T22:41:35.437Z,95096.81
2019-02-03T22:44:04.007Z,95070.80
2019-02-03T22:46:28.771Z,95089.24
2019-02-03T22:48:55.418Z,95091.64
2019-02-03T22:51:22.051Z,95080.19
2019-02-03T22:53:50.907Z,95091.56
2019-02-03T22:56:17.550Z,95097.99
2019-02-03T22:58:44.202Z,95093.19
2019-02-03T23:01:17.881Z,95092.91
2019-02-03T23:03:44.522Z,95092.78
2019-02-03T23:06:14.115Z,95099.51
2019-02-03T23:08:50.257Z,95095.81
2019-02-03T23:11:12.153Z,95104.59
2019-02-03T23:13:38.788Z,95103.27
2019-02-03T23:16:17.981Z,95093.27
2019-02-03T23:18:35.050Z,95100.22
2019-02-03T23:21:01.664Z,95115.03
2019-02-03T23:23:28.476Z,95108.59
2019-02-03T23:25:55.644Z,95117.27
2019-02-03T23:28:22.312Z,95110.11
2019-02-03T23:30:49.011Z,95114.91
2019-02-03T23:33:15.713Z,95112.59
2019-02-03T23:35:42.373Z,95120.84
2019-02-03T23:38:09.091Z,95122.61
2019-02-03T23:40:37.883Z,95120.22
2019-02-03T23:43:02.421Z,95121.59
2019-02-03T23:45:29.132Z,95129.17
2019-02-03T23:47:55.792Z,95147.48
2019-02-03T23:50:22.519Z,95145.75
2019-02-03T23:52:49.189Z,95134.92
2019-02-03T23:55:15.887Z,95134.00
2019-02-03T23:57:42.548Z,95140.61
